Time;durP1;ratioP1;P1;durP2;ratioP2;P2;SDS_P1;SDS_P2;PMS_P1;PMS_P2;Temp;Humidity;BMP_temperature;BMP_pressure;BME280_temperature;BME280_humidity;BME280_pressure;Samples;Min_cycle;Max_cycle;Signal;HPM_P1;HPM_P2
2022/09/18 00:01:37;;;;;;;10.27;1.53;;;10.90;99.90;;;;;;5090427;27;20210;-64
2022/09/18 00:04:06;;;;;;;6.00;1.47;;;10.90;99.90;;;;;;5106308;27;20190;-65
2022/09/18 00:06:37;;;;;;;7.47;1.45;;;10.90;99.90;;;;;;5105825;28;20671;-64
2022/09/18 00:09:07;;;;;;;6.40;1.40;;;10.90;99.90;;;;;;5075149;27;20237;-64
2022/09/18 00:11:36;;;;;;;7.15;1.48;;;11.00;99.90;;;;;;5101864;27;20210;-64
2022/09/18 00:14:04;;;;;;;5.60;1.33;;;11.70;99.90;;;;;;5100131;27;20226;-64
2022/09/18 00:16:31;;;;;;;7.30;1.50;;;8.90;99.90;;;;;;5080809;27;21192;-64
2022/09/18 00:18:58;;;;;;;13.77;1.50;;;10.80;99.90;;;;;;5106903;27;20201;-64
2022/09/18 00:21:25;;;;;;;6.27;1.90;;;10.80;99.90;;;;;;5102942;27;20190;-64
2022/09/18 00:23:55;;;;;;;6.65;1.27;;;10.80;99.90;;;;;;5081173;27;20358;-65
2022/09/18 00:26:24;;;;;;;5.43;1.20;;;10.80;99.90;;;;;;5106794;27;20199;-64
2022/09/18 00:28:51;;;;;;;8.60;1.60;;;10.70;99.90;;;;;;5106327;27;20206;-64
2022/09/18 00:31:20;;;;;;;8.60;1.15;;;10.70;99.90;;;;;;5075457;27;20209;-64
2022/09/18 00:33:47;;;;;;;3.47;1.20;;;10.70;99.90;;;;;;5092356;27;20230;-64
2022/09/18 00:36:16;;;;;;;5.77;1.53;;;10.70;99.90;;;;;;5101382;27;20229;-65
2022/09/18 00:38:44;;;;;;;2.70;1.60;;;10.70;99.90;;;;;;5072938;27;20214;-64
2022/09/18 00:41:15;;;;;;;5.80;1.42;;;10.60;99.90;;;;;;5106598;27;20214;-64
2022/09/18 00:43:42;;;;;;;7.65;1.65;;;10.60;99.90;;;;;;5105571;27;20195;-64
2022/09/18 00:46:19;;;;;;;4.70;1.23;;;10.60;99.90;;;;;;5085346;27;20218;-64
2022/09/18 00:48:49;;;;;;;8.00;1.37;;;10.70;99.90;;;;;;5107590;27;20199;-64
2022/09/18 00:51:17;;;;;;;8.38;1.20;;;9.00;99.90;;;;;;5104352;27;20206;-64
2022/09/18 00:53:49;;;;;;;4.30;1.30;;;10.70;99.90;;;;;;5106872;27;20736;-65
2022/09/18 00:56:18;;;;;;;2.17;1.02;;;10.70;99.90;;;;;;5078877;27;20218;-65
2022/09/18 00:58:45;;;;;;;12.98;1.20;;;10.70;99.90;;;;;;5110712;27;20202;-64
2022/09/18 01:01:12;;;;;;;7.60;1.20;;;10.70;99.90;;;;;;5093040;27;20676;-64
2022/09/18 01:03:39;;;;;;;9.23;2.10;;;10.70;99.90;;;;;;5092630;27;21009;-64
2022/09/18 01:06:13;;;;;;;7.30;1.23;;;10.70;99.90;;;;;;5108110;27;20203;-64
2022/09/18 01:08:49;;;;;;;4.97;1.10;;;10.60;99.90;;;;;;5096168;27;20208;-64
2022/09/18 01:11:36;;;;;;;3.42;0.98;;;10.60;99.90;;;;;;5076890;27;20234;-64
2022/09/18 01:14:17;;;;;;;8.65;1.63;;;10.60;99.90;;;;;;5108971;27;20225;-64
2022/09/18 01:16:52;;;;;;;5.93;2.25;;;10.40;99.90;;;;;;5111867;27;20195;-65
2022/09/18 01:19:33;;;;;;;8.40;1.37;;;10.50;99.90;;;;;;5078102;27;20198;-64
2022/09/18 01:22:15;;;;;;;6.83;1.33;;;10.50;99.90;;;;;;5111763;27;20194;-64
2022/09/18 01:24:54;;;;;;;5.93;1.40;;;10.40;99.90;;;;;;5079604;27;20690;-64
2022/09/18 01:27:30;;;;;;;6.20;1.23;;;10.40;99.90;;;;;;5111490;27;20190;-64
2022/09/18 01:30:04;;;;;;;5.50;0.90;;;10.40;99.90;;;;;;5107815;27;20241;-64
2022/09/18 01:32:33;;;;;;;4.55;1.65;;;10.40;99.90;;;;;;5093528;27;21555;-64
2022/09/18 01:35:07;;;;;;;7.97;1.50;;;10.40;99.90;;;;;;5096631;27;20222;-64
2022/09/18 01:37:39;;;;;;;8.07;1.83;;;10.30;99.90;;;;;;5108135;27;20326;-64
2022/09/18 01:40:12;;;;;;;4.20;1.50;;;10.40;99.90;;;;;;5086855;27;20199;-64
2022/09/18 01:42:41;;;;;;;6.73;1.20;;;10.40;99.90;;;;;;5095983;27;20210;-64
2022/09/18 01:45:12;;;;;;;7.00;1.10;;;10.40;99.90;;;;;;5109080;27;20203;-64
2022/09/18 01:47:45;;;;;;;4.07;1.00;;;10.40;99.90;;;;;;5111287;27;20191;-64
2022/09/18 01:50:14;;;;;;;4.87;1.37;;;10.40;99.90;;;;;;5084468;27;20199;-64
2022/09/18 01:52:45;;;;;;;3.50;1.13;;;10.40;99.90;;;;;;5110879;27;20206;-65
2022/09/18 01:55:17;;;;;;;6.43;1.17;;;10.40;99.90;;;;;;5111643;27;20223;-64
2022/09/18 01:57:49;;;;;;;9.73;1.43;;;10.30;99.90;;;;;;5084574;27;20213;-64
2022/09/18 02:00:18;;;;;;;1.50;1.02;;;10.30;99.90;;;;;;5109045;27;20209;-64
2022/09/18 02:02:52;;;;;;;7.10;1.10;;;10.30;99.90;;;;;;5109449;27;20230;-64
2022/09/18 02:05:24;;;;;;;5.07;0.90;;;10.30;99.90;;;;;;5093074;27;20627;-64
2022/09/18 02:08:03;;;;;;;3.90;0.93;;;10.30;99.90;;;;;;5114946;27;20211;-64
2022/09/18 02:10:34;;;;;;;5.23;1.10;;;10.20;99.90;;;;;;5108166;27;20217;-64
2022/09/18 02:13:02;;;;;;;5.43;1.57;;;10.30;99.90;;;;;;5084411;27;20211;-64
2022/09/18 02:15:35;;;;;;;4.07;1.00;;;10.20;99.90;;;;;;5109351;27;20226;-64
2022/09/18 02:18:07;;;;;;;6.83;1.20;;;10.20;99.90;;;;;;5112702;27;20193;-63
2022/09/18 02:20:36;;;;;;;8.03;1.33;;;10.20;99.90;;;;;;5091122;27;20198;-64
2022/09/18 02:23:06;;;;;;;5.10;1.07;;;10.20;99.90;;;;;;5110189;27;20194;-63
2022/09/18 02:25:37;;;;;;;10.40;1.77;;;11.50;99.90;;;;;;5110028;27;21192;-64
2022/09/18 02:28:07;;;;;;;3.87;1.43;;;10.20;99.90;;;;;;5082991;27;20214;-64
2022/09/18 02:30:38;;;;;;;5.03;1.80;;;9.90;99.90;;;;;;5107148;27;20671;-64
2022/09/18 02:33:20;;;;;;;3.10;1.10;;;10.20;99.90;;;;;;5108061;27;20199;-63
2022/09/18 02:35:52;;;;;;;10.47;1.27;;;10.10;99.90;;;;;;5096420;27;20223;-64
2022/09/18 02:38:29;;;;;;;5.07;1.23;;;10.10;99.90;;;;;;5109238;27;20197;-64
2022/09/18 02:41:02;;;;;;;11.90;1.33;;;10.20;99.90;;;;;;5112280;27;20200;-64
2022/09/18 02:43:41;;;;;;;4.00;1.10;;;10.00;99.90;;;;;;5081093;27;20209;-64
2022/09/18 02:46:19;;;;;;;5.83;1.47;;;10.00;99.90;;;;;;5106396;27;20202;-64
2022/09/18 02:48:55;;;;;;;7.13;1.30;;;8.10;99.90;;;;;;5109140;27;20202;-64
2022/09/18 02:51:30;;;;;;;12.93;1.87;;;10.00;99.90;;;;;;5087384;27;20217;-64
2022/09/18 02:54:04;;;;;;;6.67;0.80;;;10.00;99.90;;;;;;5106402;27;20546;-64
2022/09/18 02:56:38;;;;;;;2.33;0.80;;;10.00;99.90;;;;;;5099784;27;20222;-64
2022/09/18 02:59:10;;;;;;;2.57;0.73;;;10.00;99.90;;;;;;5084698;27;20203;-65
2022/09/18 03:01:41;;;;;;;6.30;1.40;;;10.00;99.90;;;;;;5087911;27;20202;-66
2022/09/18 03:04:12;;;;;;;8.90;1.33;;;9.90;99.90;;;;;;5107684;27;20202;-64
2022/09/18 03:06:39;;;;;;;2.27;0.90;;;10.00;99.90;;;;;;5089408;27;20227;-64
2022/09/18 03:09:06;;;;;;;4.10;1.05;;;9.90;99.90;;;;;;5095676;27;20206;-64
2022/09/18 03:11:33;;;;;;;6.03;0.90;;;10.00;99.90;;;;;;5105480;27;20203;-64
2022/09/18 03:14:00;;;;;;;9.10;1.10;;;;;;;;;;5083378;27;20214;-64
2022/09/18 03:16:27;;;;;;;3.80;1.10;;;9.90;99.90;;;;;;5107318;27;20317;-64
2022/09/18 03:18:58;;;;;;;7.07;1.47;;;9.70;99.90;;;;;;5107284;27;20203;-64
2022/09/18 03:21:25;;;;;;;3.77;0.90;;;;;;;;;;5087850;27;20203;-64
2022/09/18 03:23:52;;;;;;;5.40;0.83;;;9.90;99.90;;;;;;5110179;27;20202;-64
2022/09/18 03:26:19;;;;;;;5.57;1.07;;;9.80;99.90;;;;;;5106132;27;20198;-64
2022/09/18 03:28:47;;;;;;;5.03;1.23;;;9.80;99.90;;;;;;5079601;27;20232;-64
2022/09/18 03:31:13;;;;;;;3.53;0.90;;;9.80;99.90;;;;;;5103362;27;20252;-64
2022/09/18 03:33:40;;;;;;;12.03;1.63;;;9.90;99.90;;;;;;5109387;27;20202;-64
2022/09/18 03:36:09;;;;;;;4.73;1.00;;;10.10;99.90;;;;;;5105022;27;20606;-63
2022/09/18 03:38:38;;;;;;;5.93;1.10;;;10.00;99.90;;;;;;5093316;27;20885;-64
2022/09/18 03:41:06;;;;;;;4.60;1.07;;;10.10;99.90;;;;;;5105291;27;20213;-64
2022/09/18 03:43:33;;;;;;;3.23;1.20;;;10.10;99.90;;;;;;5102688;27;20207;-64
2022/09/18 03:46:00;;;;;;;6.90;1.10;;;10.20;99.90;;;;;;5081445;27;20217;-64
2022/09/18 03:48:26;;;;;;;4.03;1.17;;;10.30;99.90;;;;;;5104108;27;20195;-64
2022/09/18 03:50:53;;;;;;;6.70;1.47;;;10.30;99.90;;;;;;5105529;27;20209;-64
2022/09/18 03:53:21;;;;;;;7.23;1.13;;;10.30;99.90;;;;;;5088476;27;20199;-65
2022/09/18 03:55:49;;;;;;;8.80;1.30;;;10.30;99.90;;;;;;5104964;27;20219;-64
2022/09/18 03:58:16;;;;;;;5.78;0.98;;;10.20;99.90;;;;;;5104165;27;20199;-64
2022/09/18 04:00:43;;;;;;;5.25;0.80;;;10.20;99.90;;;;;;5076849;27;20206;-64
2022/09/18 04:03:11;;;;;;;6.10;1.20;;;;;;;;;;5102929;27;20249;-63
2022/09/18 04:05:37;;;;;;;9.83;1.80;;;9.90;99.90;;;;;;5108253;27;20698;-64
2022/09/18 04:08:05;;;;;;;7.50;1.20;;;10.10;99.90;;;;;;5112217;27;20198;-64
2022/09/18 04:10:33;;;;;;;12.00;1.20;;;10.10;99.90;;;;;;5088519;27;20203;-64
2022/09/18 04:13:00;;;;;;;2.33;0.93;;;10.10;99.90;;;;;;5107607;27;20199;-64
2022/09/18 04:15:27;;;;;;;3.77;1.27;;;;;;;;;;5077209;27;20215;-64
2022/09/18 04:17:54;;;;;;;10.47;1.73;;;10.10;99.90;;;;;;5107914;27;20222;-64
2022/09/18 04:20:20;;;;;;;4.00;1.50;;;10.10;99.90;;;;;;5103511;27;20199;-64
2022/09/18 04:22:47;;;;;;;5.07;1.67;;;10.20;99.90;;;;;;5108210;27;20190;-64
2022/09/18 04:25:14;;;;;;;3.05;0.98;;;10.10;99.90;;;;;;5089644;27;20215;-64
2022/09/18 04:27:42;;;;;;;6.03;1.27;;;10.20;99.90;;;;;;5106198;27;20743;-64
2022/09/18 04:30:10;;;;;;;7.63;1.02;;;10.10;99.90;;;;;;5099287;27;20199;-64
2022/09/18 04:32:37;;;;;;;9.02;3.00;;;10.10;99.90;;;;;;5085000;27;20205;-64
2022/09/18 04:35:05;;;;;;;4.60;1.80;;;10.10;99.90;;;;;;5105664;27;20210;-64
2022/09/18 04:37:32;;;;;;;6.60;1.43;;;10.00;99.90;;;;;;5100192;27;20195;-64
2022/09/18 04:39:58;;;;;;;4.50;1.23;;;10.00;99.90;;;;;;5085295;27;20237;-64
2022/09/18 04:42:25;;;;;;;6.50;1.37;;;10.00;99.90;;;;;;5104302;27;20222;-64
2022/09/18 04:44:53;;;;;;;3.80;0.87;;;10.00;99.90;;;;;;5102980;27;20195;-64
2022/09/18 04:47:20;;;;;;;5.57;1.93;;;7.30;99.90;;;;;;5075702;27;20199;-64
2022/09/18 04:49:47;;;;;;;11.13;2.13;;;9.90;99.90;;;;;;5104044;27;20664;-64
2022/09/18 04:52:13;;;;;;;4.70;1.97;;;9.90;99.90;;;;;;5107633;27;20570;-64
2022/09/18 04:54:40;;;;;;;6.17;1.93;;;9.90;99.90;;;;;;5094608;27;20198;-64
2022/09/18 04:57:07;;;;;;;4.77;1.70;;;9.90;99.90;;;;;;5102577;27;20233;-65
2022/09/18 04:59:34;;;;;;;5.17;1.60;;;;;;;;;;5107284;27;20206;-64
2022/09/18 05:02:02;;;;;;;4.30;1.57;;;9.90;99.90;;;;;;5062018;27;20230;-64
2022/09/18 05:04:29;;;;;;;1.93;1.37;;;9.90;99.90;;;;;;5109968;27;20652;-63
2022/09/18 05:06:56;;;;;;;3.57;1.17;;;9.90;99.90;;;;;;5091786;27;20210;-64
2022/09/18 05:09:23;;;;;;;3.33;1.23;;;9.90;99.90;;;;;;5109788;27;20205;-64
2022/09/18 05:11:50;;;;;;;6.93;1.80;;;9.90;99.90;;;;;;5091613;27;20647;-64
2022/09/18 05:14:16;;;;;;;5.23;2.17;;;9.90;99.90;;;;;;5105770;27;20602;-64
2022/09/18 05:16:44;;;;;;;3.87;1.73;;;;;;;;;;5087403;27;20219;-64
2022/09/18 05:19:12;;;;;;;5.13;1.63;;;9.90;99.90;;;;;;5104748;27;20205;-64
2022/09/18 05:21:39;;;;;;;7.50;1.37;;;9.90;99.90;;;;;;5107239;27;20214;-64
2022/09/18 05:24:06;;;;;;;10.27;1.60;;;9.90;99.90;;;;;;5089131;27;20229;-64
2022/09/18 05:26:34;;;;;;;8.57;1.40;;;9.90;99.90;;;;;;5094387;27;20577;-64
2022/09/18 05:29:01;;;;;;;2.07;0.90;;;;;;;;;;5105796;27;20202;-64
2022/09/18 05:31:27;;;;;;;6.57;1.07;;;10.00;99.90;;;;;;5106955;27;22034;-64
2022/09/18 05:33:54;;;;;;;3.83;1.10;;;9.80;99.90;;;;;;5084138;27;20210;-64
2022/09/18 05:36:22;;;;;;;6.70;2.80;;;10.00;99.90;;;;;;5108482;27;20584;-64
2022/09/18 05:38:50;;;;;;;11.90;5.63;;;10.00;99.90;;;;;;5093429;27;20213;-64
2022/09/18 05:41:17;;;;;;;4.47;1.50;;;10.10;99.90;;;;;;5088508;27;20198;-64
2022/09/18 05:43:44;;;;;;;3.50;1.13;;;10.10;99.90;;;;;;5108365;27;20206;-64
2022/09/18 05:46:11;;;;;;;5.20;1.53;;;10.10;99.90;;;;;;5103704;27;20279;-64
2022/09/18 05:48:38;;;;;;;3.23;1.00;;;10.10;99.90;;;;;;5076085;27;20238;-64
2022/09/18 05:51:05;;;;;;;6.23;1.23;;;10.00;99.90;;;;;;5101509;27;20695;-64
2022/09/18 05:53:34;;;;;;;5.07;1.17;;;10.40;99.90;;;;;;5092056;27;21015;-64
2022/09/18 05:56:01;;;;;;;3.07;0.80;;;;;;;;;;5097481;27;20215;-65
2022/09/18 05:58:28;;;;;;;4.27;0.90;;;10.20;99.90;;;;;;5105507;27;20195;-65
2022/09/18 06:00:57;;;;;;;9.10;1.03;;;10.40;99.90;;;;;;5108389;27;20191;-64
2022/09/18 06:03:24;;;;;;;7.57;1.03;;;10.50;99.90;;;;;;5031287;27;20385;-65
2022/09/18 06:05:52;;;;;;;6.07;1.13;;;10.60;99.90;;;;;;5078837;27;20200;-64
2022/09/18 06:08:19;;;;;;;5.10;1.10;;;10.60;99.90;;;;;;5070852;27;20771;-65
2022/09/18 06:10:47;;;;;;;9.17;1.23;;;10.70;99.90;;;;;;5067993;27;20222;-65
2022/09/18 06:13:16;;;;;;;2.65;1.10;;;10.70;99.90;;;;;;5063306;27;20550;-65
2022/09/18 06:15:45;;;;;;;8.95;2.00;;;10.70;99.90;;;;;;5082459;28;20224;-64
2022/09/18 06:18:13;;;;;;;6.90;2.17;;;10.60;99.90;;;;;;5083843;27;20219;-65
2022/09/18 06:20:40;;;;;;;11.67;2.10;;;10.80;99.90;;;;;;5054733;28;20207;-64
2022/09/18 06:23:07;;;;;;;7.80;2.37;;;10.80;99.90;;;;;;5068653;27;20215;-65
2022/09/18 06:25:33;;;;;;;5.10;1.30;;;10.60;99.90;;;;;;5072522;27;20677;-64
2022/09/18 06:28:02;;;;;;;5.17;1.17;;;10.50;99.90;;;;;;5072221;28;20208;-64
2022/09/18 06:30:31;;;;;;;3.57;0.93;;;10.60;99.90;;;;;;5075586;28;20203;-65
2022/09/18 06:33:01;;;;;;;3.80;1.27;;;10.60;99.90;;;;;;5081665;27;20219;-64
2022/09/18 06:35:28;;;;;;;7.37;1.20;;;11.60;99.90;;;;;;5049132;27;20208;-66
2022/09/18 06:37:55;;;;;;;4.82;1.35;;;10.80;99.90;;;;;;5064677;27;21145;-65
2022/09/18 06:40:24;;;;;;;8.23;2.05;;;10.90;99.90;;;;;;5061084;28;20203;-65
2022/09/18 06:42:55;;;;;;;8.45;2.60;;;11.10;99.90;;;;;;5083688;28;20286;-66
2022/09/18 06:45:24;;;;;;;5.85;1.45;;;11.00;99.90;;;;;;5064250;28;20225;-65
2022/09/18 06:47:53;;;;;;;6.32;0.88;;;11.00;99.90;;;;;;5086026;27;20204;-66
2022/09/18 06:50:20;;;;;;;2.13;1.08;;;11.00;99.90;;;;;;5087117;27;20676;-66
2022/09/18 06:52:48;;;;;;;6.43;1.15;;;11.10;99.90;;;;;;5051726;27;20234;-65
2022/09/18 06:55:15;;;;;;;5.57;1.37;;;11.10;99.90;;;;;;5045440;27;20826;-65
2022/09/18 06:57:42;;;;;;;5.43;1.02;;;11.10;99.90;;;;;;5071946;27;20226;-65
2022/09/18 07:00:10;;;;;;;5.35;0.93;;;11.00;99.90;;;;;;5063053;27;20223;-66
2022/09/18 07:02:38;;;;;;;4.70;1.60;;;11.40;99.90;;;;;;5061496;22;1069162;-65
2022/09/18 07:05:05;;;;;;;4.78;1.35;;;11.10;99.90;;;;;;5083870;27;20215;-65
2022/09/18 07:07:32;;;;;;;7.70;1.42;;;12.70;99.90;;;;;;5052462;28;20215;-65
2022/09/18 07:09:59;;;;;;;4.13;1.10;;;11.30;99.90;;;;;;5064963;27;20219;-65
2022/09/18 07:12:27;;;;;;;3.78;1.20;;;11.10;99.90;;;;;;5050414;27;20547;-65
2022/09/18 07:14:54;;;;;;;2.20;0.98;;;;;;;;;;5071217;28;20752;-65
2022/09/18 07:17:22;;;;;;;3.47;1.00;;;;;;;;;;5056201;27;20230;-65
2022/09/18 07:19:50;;;;;;;2.28;1.05;;;11.40;99.90;;;;;;5063549;28;20249;-65
2022/09/18 07:22:18;;;;;;;2.50;0.93;;;11.20;99.90;;;;;;5053884;28;20198;-66
2022/09/18 07:24:46;;;;;;;7.88;1.05;;;;;;;;;;5057024;28;20294;-66
2022/09/18 07:27:13;;;;;;;2.90;1.00;;;11.30;99.90;;;;;;5063022;28;20277;-65
2022/09/18 07:29:40;;;;;;;6.03;1.27;;;11.20;99.90;;;;;;5078192;27;20217;-65
2022/09/18 07:32:07;;;;;;;2.55;1.17;;;11.40;99.90;;;;;;5060511;28;20211;-66
2022/09/18 07:34:37;;;;;;;6.78;1.30;;;11.00;99.90;;;;;;5060391;28;20227;-65
2022/09/18 07:39:47;;;;;;;1.65;0.90;;;;;;;;;;5053280;22;20236;-66
2022/09/18 07:42:14;;;;;;;4.32;0.82;;;11.60;99.90;;;;;;5029484;28;20205;-65
2022/09/18 07:44:41;;;;;;;5.53;1.08;;;11.70;99.90;;;;;;5026607;28;20291;-65
2022/09/18 07:47:08;;;;;;;5.10;2.60;;;11.80;99.90;;;;;;5015706;28;24165;-65
2022/09/18 07:49:36;;;;;;;3.72;1.02;;;11.70;99.90;;;;;;4999803;28;20244;-65
2022/09/18 07:52:03;;;;;;;4.35;1.00;;;11.70;99.90;;;;;;5030482;22;20204;-65
2022/09/18 07:54:30;;;;;;;1.92;0.80;;;11.70;99.90;;;;;;5016981;28;22561;-64
2022/09/18 07:59:28;;;;;;;4.10;0.98;;;11.70;99.90;;;;;;5048884;22;20712;-66
2022/09/18 08:01:55;;;;;;;5.00;0.77;;;11.70;99.90;;;;;;5070435;28;20215;-65
2022/09/18 08:04:22;;;;;;;3.67;0.80;;;11.70;99.90;;;;;;5057432;28;20492;-66
2022/09/18 08:06:52;;;;;;;7.70;1.30;;;11.80;99.90;;;;;;5075422;28;20208;-65
2022/09/18 08:09:19;;;;;;;3.72;1.25;;;11.80;99.90;;;;;;5021968;28;20211;-65
2022/09/18 08:11:46;;;;;;;3.97;0.88;;;11.80;99.90;;;;;;5062158;28;20245;-65
2022/09/18 08:14:15;;;;;;;5.13;1.10;;;11.90;99.90;;;;;;5057547;28;20330;-66
2022/09/18 08:16:43;;;;;;;5.10;1.00;;;;;;;;;;5066629;28;20223;-65
2022/09/18 08:19:11;;;;;;;5.13;1.10;;;11.90;99.90;;;;;;5061164;28;20215;-66
2022/09/18 08:21:38;;;;;;;4.85;1.13;;;;;;;;;;5061357;22;20280;-66
2022/09/18 08:24:06;;;;;;;5.20;1.20;;;15.00;99.90;;;;;;5027129;28;20229;-66
2022/09/18 08:26:35;;;;;;;7.78;1.40;;;11.90;99.90;;;;;;5072880;28;20253;-65
2022/09/18 08:29:01;;;;;;;1.85;0.70;;;12.30;99.90;;;;;;5054549;28;20592;-65
2022/09/18 08:31:28;;;;;;;2.28;1.05;;;12.10;99.90;;;;;;5057556;28;21440;-65
2022/09/18 08:33:57;;;;;;;4.85;1.08;;;12.20;99.90;;;;;;5071413;28;20601;-66
2022/09/18 08:36:23;;;;;;;5.25;1.30;;;12.10;99.90;;;;;;5054232;28;20227;-65
2022/09/18 08:38:53;;;;;;;4.43;1.02;;;12.30;99.90;;;;;;5074428;28;20206;-65
2022/09/18 08:41:33;;;;;;;4.65;0.98;;;12.20;99.90;;;;;;5058962;27;20207;-66
2022/09/18 08:44:05;;;;;;;5.35;1.30;;;12.30;99.90;;;;;;5074706;27;20249;-66
2022/09/18 08:46:37;;;;;;;4.93;1.17;;;12.50;99.90;;;;;;5090528;27;20226;-65
2022/09/18 08:49:18;;;;;;;7.78;1.33;;;12.90;99.90;;;;;;5086224;27;20772;-65
2022/09/18 08:51:52;;;;;;;5.22;1.00;;;12.50;99.90;;;;;;5084606;27;20214;-65
2022/09/18 08:54:26;;;;;;;4.55;0.95;;;12.50;99.90;;;;;;5053276;27;20291;-65
2022/09/18 08:56:55;;;;;;;4.15;1.05;;;12.70;99.90;;;;;;5103404;27;20710;-65
2022/09/18 08:59:31;;;;;;;6.22;1.23;;;12.60;99.90;;;;;;5075363;27;20700;-65
2022/09/18 09:02:12;;;;;;;5.55;1.08;;;12.00;99.90;;;;;;5107058;27;20199;-66
2022/09/18 09:04:40;;;;;;;2.58;0.90;;;12.90;99.90;;;;;;5088600;27;20195;-65
2022/09/18 09:07:21;;;;;;;6.05;1.13;;;12.60;99.90;;;;;;5089333;27;20261;-64
2022/09/18 09:10:03;;;;;;;3.75;1.20;;;15.00;99.90;;;;;;5068476;27;20206;-65
2022/09/18 09:12:35;;;;;;;5.57;1.13;;;12.70;99.60;;;;;;5104809;27;20199;-65
2022/09/18 09:15:15;;;;;;;4.85;1.63;;;14.40;99.90;;;;;;5086800;27;20766;-65
2022/09/18 09:17:49;;;;;;;7.55;1.23;;;11.40;97.70;;;;;;5085981;27;20711;-65
2022/09/18 09:20:22;;;;;;;3.80;1.23;;;14.90;99.90;;;;;;5073542;22;20223;-65
2022/09/18 09:26:05;;;;;;;6.57;1.55;;;13.10;97.70;;;;;;5041836;22;20760;-65
2022/09/18 09:28:39;;;;;;;5.88;1.13;;;13.30;99.90;;;;;;5061131;28;20652;-65
2022/09/18 09:31:10;;;;;;;3.10;0.95;;;13.50;97.50;;;;;;5032244;28;21455;-65
2022/09/18 09:33:39;;;;;;;7.20;1.30;;;;;;;;;;5052637;28;20319;-66
2022/09/18 09:36:13;;;;;;;4.40;1.35;;;10.70;38.10;;;;;;5029163;28;20235;-66
2022/09/18 09:38:48;;;;;;;3.65;1.38;;;9.50;55.90;;;;;;5049141;28;20223;-63
2022/09/18 09:41:26;;;;;;;1.42;0.75;;;10.10;71.30;;;;;;5063019;22;20464;-65
2022/09/18 09:44:02;;;;;;;3.83;0.88;;;9.90;88.70;;;;;;5033758;28;20221;-65
2022/09/18 09:46:47;;;;;;;1.88;0.57;;;9.80;85.10;;;;;;5017261;28;20237;-65
2022/09/18 09:49:18;;;;;;;2.07;0.90;;;9.80;91.20;;;;;;5010670;28;20327;-65
2022/09/18 09:51:56;;;;;;;1.37;0.70;;;9.90;95.10;;;;;;4998836;28;21059;-65
2022/09/18 09:54:23;;;;;;;4.23;1.20;;;9.90;92.40;;;;;;5023064;28;21515;-65
2022/09/18 09:56:57;;;;;;;0.90;0.63;;;9.60;98.40;;;;;;5014596;28;20224;-65
2022/09/18 09:59:32;;;;;;;2.03;0.90;;;10.50;99.90;;;;;;5035973;28;20210;-65
2022/09/18 10:02:19;;;;;;;1.10;0.70;;;10.20;99.90;;;;;;5013386;28;20561;-65
2022/09/18 10:04:52;;;;;;;1.92;0.98;;;10.80;99.90;;;;;;5005854;28;20712;-65
2022/09/18 10:07:26;;;;;;;3.38;0.70;;;10.90;99.90;;;;;;5019936;28;20235;-65
2022/09/18 10:09:59;;;;;;;7.20;0.87;;;11.00;99.90;;;;;;5007106;28;20247;-65
2022/09/18 10:12:31;;;;;;;6.93;1.08;;;11.40;99.90;;;;;;5006902;28;20211;-64
2022/09/18 10:15:06;;;;;;;5.47;1.58;;;11.50;99.90;;;;;;5018490;28;20224;-64
2022/09/18 10:17:37;;;;;;;1.65;0.82;;;11.90;99.90;;;;;;5005380;28;20232;-66
2022/09/18 10:20:05;;;;;;;3.33;1.10;;;12.10;99.90;;;;;;4989079;28;20797;-66
2022/09/18 10:22:36;;;;;;;7.72;1.15;;;14.00;98.10;;;;;;5019616;28;20240;-65
2022/09/18 10:25:14;;;;;;;3.83;1.10;;;12.30;93.60;;;;;;5036584;28;20209;-66
2022/09/18 10:27:41;;;;;;;5.22;1.42;;;12.40;55.70;;;;;;4999970;28;20207;-66
2022/09/18 10:30:12;;;;;;;3.47;0.90;;;12.50;54.30;;;;;;5012874;28;20296;-66
2022/09/18 10:32:41;;;;;;;2.88;0.90;;;12.70;61.20;;;;;;5017750;28;20209;-65
2022/09/18 10:35:44;;;;;;;2.13;0.90;;;12.60;51.50;;;;;;4997681;28;20364;-66
2022/09/18 10:38:36;;;;;;;3.60;0.77;;;12.80;41.80;;;;;;4999190;28;20232;-65
2022/09/18 10:41:28;;;;;;;9.00;1.80;;;11.90;16.60;;;;;;5021514;28;20319;-66
2022/09/18 10:43:58;;;;;;;7.85;0.82;;;;;;;;;;5008510;28;20225;-65
2022/09/18 10:46:27;;;;;;;9.00;1.38;;;12.90;23.50;;;;;;5022217;28;20359;-63
2022/09/18 10:48:55;;;;;;;7.63;0.90;;;13.30;27.10;;;;;;5017253;28;20973;-63
2022/09/18 10:51:24;;;;;;;9.05;1.65;;;16.40;1.00;;;;;;5016762;28;20787;-63
2022/09/18 10:54:03;;;;;;;6.30;1.20;;;13.80;1.00;;;;;;5017183;28;20233;-62
2022/09/18 10:56:31;;;;;;;5.57;1.40;;;13.70;1.00;;;;;;5017767;28;20371;-65
2022/09/18 10:59:14;;;;;;;2.10;0.77;;;13.70;1.00;;;;;;5001104;28;20228;-65
2022/09/18 11:01:41;;;;;;;1.20;0.90;;;13.40;10.30;;;;;;4988550;28;20217;-63
2022/09/18 11:04:16;;;;;;;5.38;1.10;;;13.40;22.60;;;;;;5025366;28;20970;-64
2022/09/18 11:06:45;;;;;;;4.88;0.80;;;13.10;15.00;;;;;;5009076;28;20560;-65
2022/09/18 11:09:20;;;;;;;5.18;0.73;;;13.00;18.90;;;;;;5010693;28;20634;-64
2022/09/18 11:11:50;;;;;;;4.20;1.17;;;12.80;28.40;;;;;;5014297;28;20223;-64
2022/09/18 11:14:20;;;;;;;1.50;0.57;;;12.90;31.90;;;;;;5006473;28;20233;-64
2022/09/18 11:16:50;;;;;;;1.35;0.70;;;12.60;36.40;;;;;;5007870;28;20232;-64
2022/09/18 11:19:26;;;;;;;3.40;0.95;;;12.60;59.90;;;;;;5015140;28;22318;-64
2022/09/18 11:21:55;;;;;;;6.63;1.15;;;12.80;60.90;;;;;;5002390;28;20846;-63
2022/09/18 11:24:25;;;;;;;5.03;1.25;;;12.80;57.70;;;;;;5018582;28;20716;-64
2022/09/18 11:26:53;;;;;;;3.85;1.27;;;13.10;43.50;;;;;;5009596;28;22684;-64
2022/09/18 11:29:23;;;;;;;3.42;0.80;;;;;;;;;;5028398;28;21246;-64
2022/09/18 11:31:56;;;;;;;4.57;1.33;;;13.70;15.60;;;;;;4987914;28;20240;-66
2022/09/18 11:34:27;;;;;;;6.07;1.27;;;13.70;1.00;;;;;;5027319;28;20240;-64
2022/09/18 11:36:58;;;;;;;5.80;2.08;;;13.90;1.00;;;;;;5029432;28;20202;-64
2022/09/18 11:39:33;;;;;;;4.97;1.00;;;14.10;1.00;;;;;;5005367;28;20247;-64
2022/09/18 11:42:00;;;;;;;9.80;1.05;;;13.80;99.90;;;;;;5033435;28;20236;-63
2022/09/18 11:44:30;;;;;;;6.22;1.77;;;13.50;1.00;;;;;;5022564;28;20890;-63
2022/09/18 11:47:27;;;;;;;3.95;1.30;;;13.10;99.90;;;;;;5008506;28;20248;-63
2022/09/18 11:50:13;;;;;;;3.42;0.88;;;12.90;1.00;;;;;;5010645;28;20239;-63
2022/09/18 11:52:43;;;;;;;4.40;0.98;;;12.70;1.00;;;;;;5012325;28;20822;-63
2022/09/18 11:55:28;;;;;;;3.10;0.98;;;12.60;1.00;;;;;;5010374;28;20366;-63
2022/09/18 11:57:59;;;;;;;1.67;0.70;;;12.50;1.00;;;;;;5022040;28;20228;-63
2022/09/18 12:00:30;;;;;;;3.05;0.80;;;12.70;1.00;;;;;;5004232;28;20263;-62
2022/09/18 12:03:05;;;;;;;2.45;1.10;;;12.60;1.00;;;;;;4990427;28;20831;-63
2022/09/18 12:05:41;;;;;;;2.08;0.75;;;14.80;1.00;;;;;;5012012;28;20689;-63
2022/09/18 12:08:17;;;;;;;2.13;1.25;;;13.20;99.90;;;;;;5020992;28;20224;-63
2022/09/18 12:10:54;;;;;;;6.22;1.05;;;12.90;99.90;;;;;;5004736;28;20333;-63
2022/09/18 12:13:45;;;;;;;7.07;1.20;;;12.70;99.90;;;;;;5023070;28;20212;-63
2022/09/18 12:16:17;;;;;;;3.22;0.70;;;12.50;1.00;;;;;;5022053;28;20318;-63
2022/09/18 12:18:53;;;;;;;3.83;0.80;;;12.20;1.00;;;;;;4999021;28;20234;-64
2022/09/18 12:21:34;;;;;;;2.80;1.17;;;12.00;1.00;;;;;;5005153;28;21699;-64
2022/09/18 12:24:01;;;;;;;2.75;0.73;;;11.70;1.00;;;;;;5017555;28;20383;-64
2022/09/18 12:26:37;;;;;;;0.57;0.47;;;11.90;99.90;;;;;;5009446;28;20225;-64
2022/09/18 12:29:15;;;;;;;1.08;0.50;;;11.90;1.00;;;;;;5020731;28;20219;-64
2022/09/18 12:31:51;;;;;;;4.32;0.95;;;12.20;1.00;;;;;;4999177;28;20695;-63
2022/09/18 12:34:23;;;;;;;5.72;1.13;;;12.20;1.00;;;;;;4987701;28;20231;-65
2022/09/18 12:37:14;;;;;;;2.63;0.90;;;12.60;1.00;;;;;;5000414;28;21147;-63
2022/09/18 12:40:16;;;;;;;7.85;1.70;;;12.80;1.00;;;;;;5010515;28;20433;-63
2022/09/18 12:42:56;;;;;;;6.30;1.10;;;13.20;1.00;;;;;;4963476;28;20600;-64
2022/09/18 12:45:43;;;;;;;3.65;1.02;;;13.60;1.00;;;;;;5008108;28;20576;-63
2022/09/18 12:48:25;;;;;;;4.60;1.08;;;;;;;;;;5013254;28;20231;-63
2022/09/18 12:51:01;;;;;;;8.15;1.20;;;13.60;1.00;;;;;;4999967;28;20232;-64
2022/09/18 12:53:41;;;;;;;3.97;0.98;;;13.80;1.00;;;;;;4990025;28;20735;-64
2022/09/18 12:56:19;;;;;;;4.38;1.88;;;13.80;1.00;;;;;;4996551;28;21052;-64
2022/09/18 12:59:24;;;;;;;8.80;1.42;;;13.70;99.90;;;;;;4998380;28;20232;-66
2022/09/18 13:01:55;;;;;;;5.75;1.48;;;14.00;99.90;;;;;;5000582;28;20233;-66
2022/09/18 13:04:27;;;;;;;4.80;1.02;;;13.60;91.60;;;;;;5019511;28;20231;-64
2022/09/18 13:07:01;;;;;;;2.92;0.90;;;13.90;1.00;;;;;;4984333;28;20231;-63
2022/09/18 13:09:34;;;;;;;7.38;1.10;;;13.90;1.00;;;;;;5008832;28;20224;-65
2022/09/18 13:12:04;;;;;;;2.47;1.17;;;13.60;28.30;;;;;;5004062;28;20225;-64
2022/09/18 13:14:39;;;;;;;5.22;1.25;;;14.20;99.90;;;;;;5033152;28;20220;-65
2022/09/18 13:17:11;;;;;;;6.15;1.42;;;14.30;99.90;;;;;;5017249;28;20205;-64
2022/09/18 13:19:42;;;;;;;7.32;1.15;;;14.40;1.00;;;;;;5017054;28;20235;-64
2022/09/18 13:22:15;;;;;;;5.40;1.50;;;13.90;99.90;;;;;;4987178;28;20212;-64
2022/09/18 13:24:44;;;;;;;4.80;1.38;;;13.60;1.00;;;;;;5009327;28;20729;-64